Time;durP1;ratioP1;P1;durP2;ratioP2;P2;SDS_P1;SDS_P2;PMS_P1;PMS_P2;Temp;Humidity;BMP_temperature;BMP_pressure;BME280_temperature;BME280_humidity;BME280_pressure;Samples;Min_cycle;Max_cycle;Signal;HPM_P1;HPM_P2
2022/12/02 00:01:27;;;;;;;30.23;17.17;;;;;;;;;;6569912;28;20863;-89
2022/12/02 00:04:37;;;;;;;29.67;17.63;;;;;;;;;;6569859;28;20177;-89
2022/12/02 00:07:48;;;;;;;28.30;15.50;;;;;;;;;;6569762;28;20191;-90
2022/12/02 00:11:00;;;;;;;19.03;12.50;;;;;;;;;;6568507;28;20188;-88
2022/12/02 00:14:16;;;;;;;17.80;11.10;;;;;;;;;;6569387;28;20535;-89
2022/12/02 00:17:26;;;;;;;23.33;13.07;;;;;;;;;;6590598;28;20552;-91
2022/12/02 00:20:37;;;;;;;22.07;12.50;;;;;;;;;;6579031;28;20276;-89
2022/12/02 00:23:48;;;;;;;23.77;14.00;;;;;;;;;;6578745;28;20176;-90
2022/12/02 00:26:58;;;;;;;19.73;12.00;;;;;;;;;;6579104;28;20519;-89
2022/12/02 00:30:08;;;;;;;30.67;16.70;;;;;;;;;;6595342;28;20242;-90
2022/12/02 00:33:19;;;;;;;31.23;18.47;;;;;;;;;;6535425;28;1705593;-89
2022/12/02 00:36:29;;;;;;;26.73;14.93;;;;;;;;;;6578848;28;20226;-88
2022/12/02 00:39:40;;;;;;;26.23;14.40;;;;;;;;;;6596454;28;20204;-89
2022/12/02 00:42:50;;;;;;;24.13;13.40;;;;;;;;;;6596755;28;20256;-89
2022/12/02 00:49:29;;;;;;;14.57;8.10;;;;;;;;;;6597341;28;20207;-90
2022/12/02 00:52:39;;;;;;;25.87;13.60;;;;;;;;;;6596300;28;20176;-90
2022/12/02 00:55:50;;;;;;;24.97;14.83;;;;;;;;;;6596575;28;20172;-89
2022/12/02 00:59:00;;;;;;;28.50;15.53;;;;;;;;;;6578173;28;20257;-90
2022/12/02 01:02:11;;;;;;;21.00;12.10;;;;;;;;;;6596314;28;20623;-89
2022/12/02 01:05:21;;;;;;;26.37;15.07;;;;;;;;;;6595680;28;20207;-89
2022/12/02 01:08:32;;;;;;;28.20;15.83;;;;;;;;;;6577371;28;20184;-89
2022/12/02 01:11:43;;;;;;;17.67;10.00;;;;;;;;;;6596207;28;20251;-89
2022/12/02 01:14:53;;;;;;;24.17;13.43;;;;;;;;;;6579048;28;20176;-89
2022/12/02 01:18:03;;;;;;;31.77;17.60;;;;;;;;;;6595631;28;20214;-89
2022/12/02 01:21:14;;;;;;;32.23;17.90;;;;;;;;;;6578185;28;20181;-89
2022/12/02 01:24:24;;;;;;;33.80;16.83;;;;;;;;;;6595564;28;20539;-89
2022/12/02 01:27:34;;;;;;;26.37;15.60;;;;;;;;;;6595551;28;20181;-89
2022/12/02 01:30:45;;;;;;;15.83;10.57;;;;;;;;;;6578129;28;20176;-89
2022/12/02 01:33:55;;;;;;;27.20;14.83;;;;;;;;;;6595206;28;20193;-89
2022/12/02 01:37:06;;;;;;;33.03;18.47;;;;;;;;;;6578312;28;20212;-89
2022/12/02 01:40:17;;;;;;;29.53;15.63;;;;;;;;;;6577754;28;20573;-90
2022/12/02 01:43:28;;;;;;;29.00;15.17;;;;;;;;;;6595160;28;20175;-90
2022/12/02 01:46:39;;;;;;;29.40;15.97;;;;;;;;;;6596663;28;20172;-90
2022/12/02 01:49:50;;;;;;;39.07;18.17;;;;;;;;;;6577756;28;20172;-90
2022/12/02 01:53:01;;;;;;;37.27;19.80;;;;;;;;;;6595533;28;20168;-90
2022/12/02 01:56:11;;;;;;;30.93;16.13;;;;;;;;;;6576975;28;20584;-90
2022/12/02 01:59:22;;;;;;;24.67;13.83;;;;;;;;;;6578112;28;20185;-90
2022/12/02 02:02:35;;;;;;;26.97;15.63;;;;;;;;;;6578040;28;20176;-90
2022/12/02 02:05:47;;;;;;;22.53;12.23;;;;;;;;;;6595840;28;20181;-91
2022/12/02 02:08:57;;;;;;;23.00;13.57;;;;;;;;;;6595815;28;20176;-90
2022/12/02 02:12:08;;;;;;;17.07;11.03;;;;;;;;;;6577452;28;20538;-90
2022/12/02 02:15:20;;;;;;;20.70;13.23;;;;;;;;;;6595247;28;20678;-89
2022/12/02 02:18:30;;;;;;;22.57;11.80;;;;;;;;;;6578040;28;20203;-89
2022/12/02 02:21:43;;;;;;;21.77;13.87;;;;;;;;;;6582432;28;20184;-90
2022/12/02 02:24:53;;;;;;;19.50;11.60;;;;;;;;;;6581999;28;20179;-89
2022/12/02 02:28:03;;;;;;;22.80;12.60;;;;;;;;;;6581930;28;20616;-89
2022/12/02 02:31:14;;;;;;;22.43;12.77;;;;;;;;;;6585560;28;20647;-89
2022/12/02 02:34:26;;;;;;;27.30;15.83;;;;;;;;;;6625883;28;20196;-89
2022/12/02 02:37:36;;;;;;;22.83;14.47;;;;;;;;;;6608617;28;20322;-90
2022/12/02 02:40:47;;;;;;;23.33;14.07;;;;;;;;;;6607563;28;20207;-89
2022/12/02 02:43:57;;;;;;;22.83;13.17;;;;;;;;;;6607888;28;20180;-89
2022/12/02 02:47:08;;;;;;;24.80;13.20;;;;;;;;;;6625497;28;20229;-90
2022/12/02 02:50:18;;;;;;;33.87;17.63;;;;;;;;;;6606950;28;20176;-88
2022/12/02 02:53:29;;;;;;;28.57;16.53;;;;;;;;;;6607309;28;20270;-89
2022/12/02 02:56:39;;;;;;;24.63;15.07;;;;;;;;;;6625410;28;20210;-91
2022/12/02 02:59:51;;;;;;;22.57;13.20;;;;;;;;;;6607062;28;20180;-90
2022/12/02 03:03:02;;;;;;;21.73;13.80;;;;;;;;;;6606772;28;20630;-91
2022/12/02 03:06:13;;;;;;;32.07;17.47;;;;;;;;;;6606786;28;20176;-90
2022/12/02 03:09:25;;;;;;;30.10;17.40;;;;;;;;;;6626167;28;20591;-89
2022/12/02 03:12:36;;;;;;;28.63;16.77;;;;;;;;;;6625367;28;20187;-90
2022/12/02 03:15:46;;;;;;;28.40;17.03;;;;;;;;;;6606469;28;20270;-90
2022/12/02 03:18:57;;;;;;;27.43;15.90;;;;;;;;;;6624665;28;20218;-90
2022/12/02 03:22:07;;;;;;;27.50;16.43;;;;;;;;;;6606433;28;20183;-90
2022/12/02 03:25:18;;;;;;;29.23;16.63;;;;;;;;;;6607098;28;20176;-90
2022/12/02 03:28:28;;;;;;;20.10;10.90;;;;;;;;;;6607135;28;20180;-91
2022/12/02 03:31:38;;;;;;;26.47;16.50;;;;;;;;;;6623743;28;20231;-91
2022/12/02 03:34:49;;;;;;;29.40;16.57;;;;;;;;;;6606710;28;20207;-91
2022/12/02 03:37:59;;;;;;;29.37;16.67;;;;;;;;;;6606172;28;20203;-91
2022/12/02 03:41:10;;;;;;;28.17;16.23;;;;;;;;;;6607085;28;20526;-91
2022/12/02 03:44:21;;;;;;;24.20;12.20;;;;;;;;;;6623649;28;20195;-91
2022/12/02 03:47:33;;;;;;;19.83;12.33;;;;;;;;;;6624481;28;20266;-91
2022/12/02 03:50:43;;;;;;;22.07;13.23;;;;;;;;;;6624597;28;20259;-91
2022/12/02 03:53:54;;;;;;;24.27;15.17;;;;;;;;;;6605588;28;20495;-91
2022/12/02 03:57:06;;;;;;;32.50;18.13;;;;;;;;;;6605410;28;20207;-91
2022/12/02 04:00:17;;;;;;;27.57;13.87;;;;;;;;;;6606337;28;20229;-91
2022/12/02 04:03:27;;;;;;;32.50;17.67;;;;;;;;;;6605933;28;20176;-90
2022/12/02 04:06:38;;;;;;;21.23;10.40;;;;;;;;;;6605592;28;20180;-89
2022/12/02 04:09:49;;;;;;;21.43;12.70;;;;;;;;;;6623298;28;20542;-90
2022/12/02 04:13:00;;;;;;;30.43;16.17;;;;;;;;;;6605375;28;20180;-90
2022/12/02 04:16:10;;;;;;;30.90;17.47;;;;;;;;;;6604570;28;20183;-90
2022/12/02 04:19:21;;;;;;;37.47;18.53;;;;;;;;;;6623202;28;20222;-90
2022/12/02 04:22:31;;;;;;;28.90;15.47;;;;;;;;;;6623796;28;20215;-90
2022/12/02 04:25:41;;;;;;;31.83;16.60;;;;;;;;;;6604759;28;20172;-91
2022/12/02 04:28:52;;;;;;;36.03;19.17;;;;;;;;;;6622466;28;20175;-90
2022/12/02 04:32:02;;;;;;;32.23;15.90;;;;;;;;;;6604294;28;20277;-90
2022/12/02 04:35:14;;;;;;;37.67;20.23;;;;;;;;;;6580686;28;20724;-89
2022/12/02 04:38:24;;;;;;;32.80;18.53;;;;;;;;;;6596897;28;20200;-88
2022/12/02 04:41:34;;;;;;;38.00;18.77;;;;;;;;;;6596077;28;20211;-88
2022/12/02 04:44:45;;;;;;;29.43;15.70;;;;;;;;;;6596320;28;20562;-88
2022/12/02 04:47:55;;;;;;;25.40;14.47;;;;;;;;;;6579030;28;20192;-88
2022/12/02 04:51:05;;;;;;;24.50;14.43;;;;;;;;;;6596010;28;20222;-88
2022/12/02 04:54:16;;;;;;;29.27;16.50;;;;;;;;;;6596459;28;20185;-88
2022/12/02 04:57:27;;;;;;;31.17;18.37;;;;;;;;;;6595986;28;20207;-89
2022/12/02 05:00:38;;;;;;;19.47;11.60;;;;;;;;;;6596411;28;20173;-88
2022/12/02 05:03:48;;;;;;;30.50;17.17;;;;;;;;;;6578594;28;20179;-89
2022/12/02 05:06:59;;;;;;;35.70;18.00;;;;;;;;;;6578214;28;20512;-88
2022/12/02 05:10:09;;;;;;;30.40;17.60;;;;;;;;;;6595786;28;20183;-89
2022/12/02 05:13:19;;;;;;;29.10;16.40;;;;;;;;;;6578755;28;20226;-89
2022/12/02 05:16:30;;;;;;;26.47;14.77;;;;;;;;;;6579366;28;20574;-89
2022/12/02 05:19:40;;;;;;;21.93;12.80;;;;;;;;;;6595358;28;20184;-89
2022/12/02 05:22:50;;;;;;;25.87;14.17;;;;;;;;;;6594264;28;20180;-89
2022/12/02 05:26:00;;;;;;;24.57;13.93;;;;;;;;;;6577665;28;20184;-88
2022/12/02 05:29:11;;;;;;;24.77;14.13;;;;;;;;;;6596288;28;20234;-89
2022/12/02 05:32:21;;;;;;;21.27;12.47;;;;;;;;;;6595941;28;20255;-89
2022/12/02 05:35:31;;;;;;;24.87;13.87;;;;;;;;;;6596223;28;20622;-90
2022/12/02 05:38:42;;;;;;;33.90;15.43;;;;;;;;;;6577480;28;20196;-90
2022/12/02 05:41:54;;;;;;;28.80;15.93;;;;;;;;;;6577965;28;20194;-90
2022/12/02 05:45:17;;;;;;;26.43;15.23;;;;;;;;;;6577739;28;20238;-90
2022/12/02 05:48:31;;;;;;;22.73;13.33;;;;;;;;;;6595358;28;20175;-89
2022/12/02 05:51:41;;;;;;;25.37;14.57;;;;;;;;;;6595337;28;20183;-89
2022/12/02 05:54:53;;;;;;;24.10;14.83;;;;;;;;;;6602819;28;20196;-89
2022/12/02 05:58:06;;;;;;;20.83;13.33;;;;;;;;;;6582955;28;20677;-90
2022/12/02 06:01:30;;;;;;;17.17;10.13;;;;;;;;;;6582948;28;20192;-89
2022/12/02 06:04:40;;;;;;;28.27;17.10;;;;;;;;;;6601317;28;20168;-89
2022/12/02 06:07:52;;;;;;;27.97;15.17;;;;;;;;;;6582714;28;20602;-89
2022/12/02 06:11:10;;;;;;;14.77;9.77;;;;;;;;;;6582655;28;20575;-89
2022/12/02 06:14:23;;;;;;;18.87;11.67;;;;;;;;;;6583676;28;20514;-89
2022/12/02 06:17:33;;;;;;;21.90;12.43;;;;;;;;;;6581793;28;20206;-89
2022/12/02 06:20:44;;;;;;;19.17;11.23;;;;;;;;;;6600241;28;20168;-90
2022/12/02 06:23:56;;;;;;;22.33;12.77;;;;;;;;;;6582470;28;20172;-90
2022/12/02 06:27:11;;;;;;;23.93;14.00;;;;;;;;;;6598332;28;20177;-92
2022/12/02 06:30:21;;;;;;;25.00;14.23;;;;;;;;;;6556691;28;20695;-92
2022/12/02 06:33:33;;;;;;;20.27;13.27;;;;;;;;;;6555732;28;20264;-92
2022/12/02 06:36:44;;;;;;;13.57;8.13;;;;;;;;;;6573218;28;20267;-90
2022/12/02 06:39:55;;;;;;;15.90;9.10;;;;;;;;;;6571594;28;20511;-91
2022/12/02 06:43:15;;;;;;;22.73;15.00;;;;;;;;;;6598976;28;20192;-91
2022/12/02 06:46:25;;;;;;;23.17;14.33;;;;;;;;;;6582245;28;20177;-91
2022/12/02 06:49:38;;;;;;;24.80;15.23;;;;;;;;;;6581325;28;20642;-91
2022/12/02 06:52:49;;;;;;;20.63;13.23;;;;;;;;;;6581170;28;20176;-90
2022/12/02 06:56:11;;;;;;;16.70;10.27;;;;;;;;;;6599248;28;20240;-91
2022/12/02 06:59:22;;;;;;;21.80;13.00;;;;;;;;;;6580041;28;20230;-89
2022/12/02 07:02:32;;;;;;;24.37;14.80;;;;;;;;;;6579724;28;20254;-89
2022/12/02 07:05:42;;;;;;;23.67;13.97;;;;;;;;;;6596384;28;20643;-89
2022/12/02 07:08:56;;;;;;;21.47;13.07;;;;;;;;;;6580793;28;20203;-89
2022/12/02 07:12:30;;;;;;;18.60;12.13;;;;;;;;;;6598914;28;20183;-89
2022/12/02 07:15:41;;;;;;;20.13;11.27;;;;;;;;;;6567842;28;20539;-88
2022/12/02 07:18:52;;;;;;;22.43;13.77;;;;;;;;;;6580841;28;20235;-89
2022/12/02 07:22:03;;;;;;;28.40;17.03;;;;;;;;;;6580474;28;20187;-90
2022/12/02 07:25:20;;;;;;;20.90;12.63;;;;;;;;;;6598682;28;20586;-89
2022/12/02 07:28:33;;;;;;;14.80;8.57;;;;;;;;;;6598906;28;20173;-89
2022/12/02 07:31:45;;;;;;;22.13;14.07;;;;;;;;;;6598188;28;20220;-89
2022/12/02 07:34:56;;;;;;;18.77;11.03;;;;;;;;;;6597930;28;20219;-88
2022/12/02 07:38:06;;;;;;;21.03;13.67;;;;;;;;;;6581414;28;20603;-89
2022/12/02 07:41:18;;;;;;;23.07;14.63;;;;;;;;;;6598536;28;20229;-89
2022/12/02 07:44:28;;;;;;;26.30;15.37;;;;;;;;;;6598516;28;20221;-89
2022/12/02 07:47:39;;;;;;;30.87;17.20;;;;;;;;;;6580133;28;20184;-89
2022/12/02 07:50:50;;;;;;;21.33;13.47;;;;;;;;;;6580441;28;20180;-89
2022/12/02 07:54:01;;;;;;;24.40;14.47;;;;;;;;;;6579548;28;20250;-88
2022/12/02 07:57:11;;;;;;;15.87;10.87;;;;;;;;;;6579231;28;20216;-88
2022/12/02 08:00:22;;;;;;;20.13;10.20;;;;;;;;;;6579257;28;20693;-89
2022/12/02 08:03:32;;;;;;;11.87;8.23;;;;;;;;;;6597219;28;20192;-89
2022/12/02 08:06:43;;;;;;;31.13;17.27;;;;;;;;;;6597151;28;20208;-88
2022/12/02 08:09:53;;;;;;;18.27;11.13;;;;;;;;;;6579594;28;20181;-89
2022/12/02 08:13:04;;;;;;;27.87;15.97;;;;;;;;;;6597296;28;20177;-89
2022/12/02 08:16:15;;;;;;;30.23;17.00;;;;;;;;;;6596911;28;20172;-89
2022/12/02 08:19:25;;;;;;;23.30;13.50;;;;;;;;;;6597036;28;20184;-89
2022/12/02 08:22:35;;;;;;;23.97;14.23;;;;;;;;;;6580100;28;20172;-90
2022/12/02 08:25:46;;;;;;;26.30;14.77;;;;;;;;;;6580134;28;20558;-90
2022/12/02 08:28:56;;;;;;;22.67;13.27;;;;;;;;;;6598033;28;20180;-90
2022/12/02 08:32:06;;;;;;;25.13;14.73;;;;;;;;;;6579497;28;20247;-90
2022/12/02 08:35:17;;;;;;;34.20;18.17;;;;;;;;;;6596994;28;20579;-89
2022/12/02 08:38:28;;;;;;;25.77;13.10;;;;;;;;;;6579341;28;20220;-89
2022/12/02 08:41:39;;;;;;;37.30;20.07;;;;;;;;;;6596487;28;20187;-90
2022/12/02 08:44:49;;;;;;;29.27;16.30;;;;;;;;;;6572296;28;20172;-90
2022/12/02 08:47:59;;;;;;;25.73;15.37;;;;;;;;;;6594731;28;20184;-90
2022/12/02 08:51:10;;;;;;;20.57;12.07;;;;;;;;;;6595207;28;20230;-90
2022/12/02 08:54:20;;;;;;;19.53;11.23;;;;;;;;;;6596229;28;20207;-90
2022/12/02 08:57:30;;;;;;;40.37;20.70;;;;;;;;;;6595419;28;20216;-89
2022/12/02 09:00:40;;;;;;;27.13;14.80;;;;;;;;;;6595812;28;20639;-90
2022/12/02 09:03:51;;;;;;;33.53;19.07;;;;;;;;;;6578339;28;20180;-88
2022/12/02 09:07:01;;;;;;;47.73;26.13;;;;;;;;;;6578260;28;20180;-90
2022/12/02 09:10:12;;;;;;;23.80;15.43;;;;;;;;;;6578270;28;20183;-89
2022/12/02 09:13:23;;;;;;;27.37;15.83;;;;;;;;;;6578536;28;20194;-88
2022/12/02 09:16:33;;;;;;;25.57;15.40;;;;;;;;;;6577875;28;20627;-89
2022/12/02 09:19:43;;;;;;;37.03;21.10;;;;;;;;;;6577004;28;20562;-88
2022/12/02 09:22:55;;;;;;;34.07;17.27;;;;;;;;;;6577589;28;20267;-88
2022/12/02 09:26:05;;;;;;;26.27;14.17;;;;;;;;;;6575670;28;20172;-88
2022/12/02 09:29:15;;;;;;;23.87;12.13;;;;;;;;;;6593371;28;20202;-89
2022/12/02 09:32:26;;;;;;;25.00;13.13;;;;;;;;;;6592348;28;20278;-88
2022/12/02 09:35:38;;;;;;;33.77;18.63;;;;;;;;;;6592684;28;20523;-89
2022/12/02 09:38:48;;;;;;;32.00;16.27;;;;;;;;;;6595456;28;20199;-89
2022/12/02 09:41:59;;;;;;;38.33;20.50;;;;;;;;;;6576725;28;20270;-88
2022/12/02 09:45:10;;;;;;;27.67;15.40;;;;;;;;;;6595647;28;20299;-88
2022/12/02 09:48:21;;;;;;;35.87;18.23;;;;;;;;;;6592872;28;20177;-88
2022/12/02 09:51:32;;;;;;;26.63;15.63;;;;;;;;;;6595233;28;20180;-88
2022/12/02 09:54:43;;;;;;;33.00;16.67;;;;;;;;;;6577489;28;20172;-90
2022/12/02 09:57:54;;;;;;;25.87;14.20;;;;;;;;;;6594677;28;20266;-90
2022/12/02 10:01:08;;;;;;;23.70;13.67;;;;;;;;;;6573960;28;20181;-90
2022/12/02 10:04:19;;;;;;;28.40;15.63;;;;;;;;;;6595951;28;20287;-91
2022/12/02 10:07:29;;;;;;;30.77;18.10;;;;;;;;;;6576492;28;20185;-90
2022/12/02 10:10:43;;;;;;;32.97;16.47;;;;;;;;;;6565182;28;21048;-92
2022/12/02 10:13:54;;;;;;;30.23;15.20;;;;;;;;;;6575355;28;20215;-92
2022/12/02 10:17:14;;;;;;;30.93;12.43;;;;;;;;;;6564895;28;20208;-90
2022/12/02 10:20:26;;;;;;;17.17;10.50;;;;;;;;;;6571959;28;20634;-90
2022/12/02 10:23:53;;;;;;;24.23;15.43;;;;;;;;;;6593811;28;20177;-92
2022/12/02 10:27:03;;;;;;;26.30;16.00;;;;;;;;;;6567269;28;20180;-91
2022/12/02 10:30:18;;;;;;;25.60;15.43;;;;;;;;;;6592841;28;20259;-93
2022/12/02 10:33:30;;;;;;;29.57;15.93;;;;;;;;;;6566512;28;20286;-93
2022/12/02 10:36:41;;;;;;;34.53;19.30;;;;;;;;;;6569709;28;20619;-92
2022/12/02 10:40:10;;;;;;;26.27;14.70;;;;;;;;;;6595951;28;20184;-92
2022/12/02 10:43:21;;;;;;;18.07;11.07;;;;;;;;;;6575505;28;20180;-93
2022/12/02 10:46:32;;;;;;;22.37;13.13;;;;;;;;;;6597477;28;20181;-92
2022/12/02 10:49:54;;;;;;;32.67;16.77;;;;;;;;;;6568847;28;20231;-92
2022/12/02 10:53:05;;;;;;;23.80;14.13;;;;;;;;;;6581148;28;20415;-92
2022/12/02 10:56:18;;;;;;;26.07;13.33;;;;;;;;;;6581146;28;20181;-92
2022/12/02 10:59:28;;;;;;;28.73;16.00;;;;;;;;;;6581236;28;20204;-91
2022/12/02 11:02:45;;;;;;;14.83;9.57;;;;;;;;;;6598838;28;20246;-92
2022/12/02 11:05:56;;;;;;;35.07;17.93;;;;;;;;;;6581119;28;20184;-92
2022/12/02 11:09:07;;;;;;;27.17;15.77;;;;;;;;;;6580972;28;20188;-92
2022/12/02 11:12:34;;;;;;;37.90;19.23;;;;;;;;;;6595184;28;20177;-90
2022/12/02 11:15:46;;;;;;;37.27;18.53;;;;;;;;;;6580922;28;20173;-93
2022/12/02 11:19:02;;;;;;;34.50;18.80;;;;;;;;;;6561551;28;20215;-92
2022/12/02 11:22:36;;;;;;;37.03;18.70;;;;;;;;;;6571153;28;20173;-92
2022/12/02 11:26:06;;;;;;;25.90;14.90;;;;;;;;;;6535731;28;20271;-93
2022/12/02 11:29:16;;;;;;;32.67;16.70;;;;;;;;;;6581277;28;20246;-92
2022/12/02 11:32:27;;;;;;;31.57;18.10;;;;;;;;;;6583463;28;20260;-92
2022/12/02 11:35:56;;;;;;;33.17;17.43;;;;;;;;;;6597400;28;20200;-92
2022/12/02 11:39:11;;;;;;;34.33;18.80;;;;;;;;;;6574888;28;20215;-92
2022/12/02 11:42:26;;;;;;;34.93;20.17;;;;;;;;;;6585512;28;20184;-92
2022/12/02 11:45:39;;;;;;;32.07;18.20;;;;;;;;;;6596256;28;20172;-92
2022/12/02 11:48:51;;;;;;;35.90;20.07;;;;;;;;;;6591316;28;20188;-92
2022/12/02 11:52:08;;;;;;;40.27;22.50;;;;;;;;;;6594326;28;20299;-92
2022/12/02 11:55:21;;;;;;;36.10;13.20;;;;;;;;;;6592619;28;20254;-92
2022/12/02 11:58:32;;;;;;;36.37;21.37;;;;;;;;;;6588563;28;20354;-91
2022/12/02 12:01:43;;;;;;;38.33;20.40;;;;;;;;;;6592015;28;20185;-91
2022/12/02 12:05:03;;;;;;;47.70;25.40;;;;;;;;;;6596094;28;20596;-92
2022/12/02 12:08:23;;;;;;;35.80;19.33;;;;;;;;;;6584895;28;20184;-92
2022/12/02 12:11:36;;;;;;;46.70;23.07;;;;;;;;;;6593724;28;20181;-92
2022/12/02 12:14:56;;;;;;;40.33;20.77;;;;;;;;;;6597710;28;20248;-92
2022/12/02 12:18:07;;;;;;;37.13;20.87;;;;;;;;;;6594336;28;20204;-90
2022/12/02 12:21:29;;;;;;;33.40;19.20;;;;;;;;;;6597678;28;20187;-90
2022/12/02 12:24:39;;;;;;;33.90;18.73;;;;;;;;;;6595837;28;20183;-91
2022/12/02 12:27:50;;;;;;;45.97;24.13;;;;;;;;;;6594885;28;20185;-91
2022/12/02 12:31:02;;;;;;;45.90;23.87;;;;;;;;;;6588534;28;20250;-91
2022/12/02 12:34:16;;;;;;;43.30;21.67;;;;;;;;;;6554554;28;20275;-90
2022/12/02 12:37:27;;;;;;;32.47;18.13;;;;;;;;;;6579082;28;20223;-91
2022/12/02 12:40:37;;;;;;;33.60;20.00;;;;;;;;;;6579126;28;20540;-92
2022/12/02 12:43:49;;;;;;;26.73;14.37;;;;;;;;;;6578263;28;20235;-90
2022/12/02 12:47:02;;;;;;;31.47;15.97;;;;;;;;;;6573935;28;20627;-90
2022/12/02 12:50:12;;;;;;;37.40;20.50;;;;;;;;;;6578858;28;20630;-90
2022/12/02 12:53:22;;;;;;;30.47;15.97;;;;;;;;;;6595334;28;20176;-90
2022/12/02 12:56:33;;;;;;;37.33;19.03;;;;;;;;;;6576768;28;20184;-90
2022/12/02 12:59:46;;;;;;;36.20;18.90;;;;;;;;;;6595685;28;20520;-90
2022/12/02 13:02:57;;;;;;;32.27;17.43;;;;;;;;;;6594066;28;20204;-91
2022/12/02 13:06:08;;;;;;;22.73;11.80;;;;;;;;;;6576554;28;20230;-88
2022/12/02 13:09:19;;;;;;;29.63;16.53;;;;;;;;;;6594276;28;20626;-90
2022/12/02 13:12:29;;;;;;;28.97;16.37;;;;;;;;;;6594847;28;20180;-91
2022/12/02 13:15:40;;;;;;;28.60;14.60;;;;;;;;;;6595745;28;20219;-91
2022/12/02 13:18:50;;;;;;;22.13;13.93;;;;;;;;;;6594938;28;20352;-90
2022/12/02 13:22:00;;;;;;;34.67;19.37;;;;;;;;;;6578233;28;20176;-90
2022/12/02 13:25:11;;;;;;;30.53;17.90;;;;;;;;;;6595511;28;20642;-91
2022/12/02 13:28:21;;;;;;;34.93;18.67;;;;;;;;;;6560200;28;20275;-90
2022/12/02 13:31:32;;;;;;;32.33;18.53;;;;;;;;;;6538226;28;20237;-91
2022/12/02 13:34:42;;;;;;;25.37;13.37;;;;;;;;;;6577656;28;20208;-90
2022/12/02 13:37:52;;;;;;;33.20;17.30;;;;;;;;;;6577170;28;20192;-90
2022/12/02 13:41:03;;;;;;;32.10;16.37;;;;;;;;;;6577882;28;20199;-90
2022/12/02 13:44:15;;;;;;;54.90;26.03;;;;;;;;;;6577773;28;20204;-90
2022/12/02 13:47:26;;;;;;;31.43;17.97;;;;;;;;;;6595543;28;20517;-90
2022/12/02 13:50:37;;;;;;;44.10;23.90;;;;;;;;;;6595637;28;20169;-91
2022/12/02 13:53:49;;;;;;;53.50;30.20;;;;;;;;;;6596169;28;20631;-90
2022/12/02 13:57:01;;;;;;;39.30;21.30;;;;;;;;;;6577685;28;20200;-91
2022/12/02 14:00:11;;;;;;;46.33;24.80;;;;;;;;;;6575463;28;20184;-91
2022/12/02 14:03:22;;;;;;;45.13;24.03;;;;;;;;;;6577208;28;20172;-90
2022/12/02 14:06:32;;;;;;;51.47;29.13;;;;;;;;;;6572372;28;20616;-91
2022/12/02 14:09:43;;;;;;;53.07;29.53;;;;;;;;;;6595149;28;20173;-91
2022/12/02 14:12:55;;;;;;;56.27;30.60;;;;;;;;;;6565642;28;20181;-91
2022/12/02 14:16:05;;;;;;;44.07;24.30;;;;;;;;;;6556907;28;20670;-90
2022/12/02 14:19:16;;;;;;;61.23;32.73;;;;;;;;;;6595304;28;20204;-90
2022/12/02 14:22:26;;;;;;;50.83;27.27;;;;;;;;;;6599489;28;20584;-90
2022/12/02 14:25:37;;;;;;;47.50;26.27;;;;;;;;;;6582469;28;20180;-91
2022/12/02 14:28:47;;;;;;;100.87;40.17;;;;;;;;;;6581194;28;20531;-92
2022/12/02 14:31:59;;;;;;;147.17;54.93;;;;;;;;;;6572649;28;20247;-91
2022/12/02 14:35:09;;;;;;;109.77;47.47;;;;;;;;;;6580971;28;20193;-90
2022/12/02 14:38:20;;;;;;;151.47;74.60;;;;;;;;;;6598656;28;20535;-90
2022/12/02 14:41:30;;;;;;;132.70;73.97;;;;;;;;;;6581853;28;20176;-90
2022/12/02 14:44:41;;;;;;;49.53;30.00;;;;;;;;;;6581168;28;20631;-91
2022/12/02 14:47:51;;;;;;;66.20;36.00;;;;;;;;;;6599275;28;20268;-90
2022/12/02 14:51:01;;;;;;;69.37;32.80;;;;;;;;;;6581342;28;20168;-90
2022/12/02 14:54:12;;;;;;;49.33;27.33;;;;;;;;;;6598369;28;20176;-90
2022/12/02 14:57:22;;;;;;;54.43;26.60;;;;;;;;;;6580609;28;20204;-90
2022/12/02 15:00:33;;;;;;;30.23;16.33;;;;;;;;;;6579336;28;20593;-90
2022/12/02 15:03:43;;;;;;;34.70;18.03;;;;;;;;;;6597648;28;20634;-90
2022/12/02 15:06:53;;;;;;;46.00;23.83;;;;;;;;;;6597778;28;20206;-90
2022/12/02 15:10:04;;;;;;;34.10;16.47;;;;;;;;;;6579228;28;20175;-91
2022/12/02 15:13:14;;;;;;;28.57;14.63;;;;;;;;;;6597355;28;20183;-91
2022/12/02 15:16:24;;;;;;;46.13;22.90;;;;;;;;;;6571196;28;20213;-91
2022/12/02 15:19:35;;;;;;;47.20;24.50;;;;;;;;;;6596753;28;20216;-92
2022/12/02 15:22:45;;;;;;;45.40;24.17;;;;;;;;;;6579875;28;20180;-91
2022/12/02 15:25:55;;;;;;;27.93;14.63;;;;;;;;;;6579693;28;20173;-90
2022/12/02 15:29:06;;;;;;;38.03;19.40;;;;;;;;;;6580111;28;20507;-89
2022/12/02 15:32:16;;;;;;;27.37;13.20;;;;;;;;;;6579954;28;20239;-89
2022/12/02 15:35:26;;;;;;;38.00;20.27;;;;;;;;;;6597938;28;20212;-91
2022/12/02 15:38:37;;;;;;;36.37;18.33;;;;;;;;;;6579687;28;20216;-91
2022/12/02 15:41:47;;;;;;;54.43;24.70;;;;;;;;;;6596704;28;20188;-90
2022/12/02 15:44:57;;;;;;;67.97;29.07;;;;;;;;;;6578879;28;20182;-88
2022/12/02 15:48:08;;;;;;;52.70;22.33;;;;;;;;;;6594636;28;20222;-87
2022/12/02 15:51:18;;;;;;;46.87;24.67;;;;;;;;;;6598142;28;20176;-88
2022/12/02 15:54:30;;;;;;;31.20;17.43;;;;;;;;;;6600714;28;20179;-89
2022/12/02 15:57:41;;;;;;;42.87;20.70;;;;;;;;;;6597609;28;20231;-89
2022/12/02 16:00:52;;;;;;;45.13;23.50;;;;;;;;;;6597900;28;20204;-89
2022/12/02 16:04:02;;;;;;;40.20;21.20;;;;;;;;;;6572685;28;20179;-88
2022/12/02 16:07:14;;;;;;;34.00;18.10;;;;;;;;;;6578540;28;20196;-89
2022/12/02 16:10:24;;;;;;;67.67;32.57;;;;;;;;;;6597964;28;20186;-88
2022/12/02 16:13:36;;;;;;;62.93;27.70;;;;;;;;;;6592050;28;20632;-91
2022/12/02 16:16:48;;;;;;;47.27;22.50;;;;;;;;;;6597343;28;20173;-91
2022/12/02 16:19:58;;;;;;;62.30;26.87;;;;;;;;;;6579476;28;20173;-91
2022/12/02 16:23:08;;;;;;;63.03;27.73;;;;;;;;;;6578788;28;20222;-91
2022/12/02 16:26:20;;;;;;;52.50;25.60;;;;;;;;;;6579293;28;20862;-92
2022/12/02 16:29:30;;;;;;;50.90;25.17;;;;;;;;;;6586010;28;20185;-91
2022/12/02 16:32:41;;;;;;;47.97;23.80;;;;;;;;;;6566749;28;20366;-91
2022/12/02 16:35:51;;;;;;;29.80;15.50;;;;;;;;;;6578925;28;20262;-90
2022/12/02 16:39:01;;;;;;;55.57;25.80;;;;;;;;;;6561251;28;20633;-91
2022/12/02 16:42:12;;;;;;;46.03;23.30;;;;;;;;;;6594864;28;20196;-92
2022/12/02 16:45:22;;;;;;;54.37;23.93;;;;;;;;;;6586016;28;20247;-92
2022/12/02 16:48:32;;;;;;;46.17;23.00;;;;;;;;;;6590283;28;20183;-91
2022/12/02 16:51:43;;;;;;;55.20;24.20;;;;;;;;;;6593822;28;20173;-92
2022/12/02 16:54:54;;;;;;;37.60;19.47;;;;;;;;;;6603903;28;20645;-92
2022/12/02 16:58:05;;;;;;;50.70;24.97;;;;;;;;;;6606088;28;20227;-92
2022/12/02 17:01:15;;;;;;;36.50;20.63;;;;;;;;;;6594993;28;20183;-92
2022/12/02 17:04:25;;;;;;;43.33;20.40;;;;;;;;;;6596181;28;20230;-90
2022/12/02 17:07:36;;;;;;;29.70;16.13;;;;;;;;;;6595245;28;20241;-90
2022/12/02 17:10:46;;;;;;;29.63;15.13;;;;;;;;;;6576050;28;20278;-93
2022/12/02 17:13:57;;;;;;;40.63;21.40;;;;;;;;;;6592454;28;20177;-93
2022/12/02 17:17:07;;;;;;;46.63;25.10;;;;;;;;;;6587510;28;20208;-93
2022/12/02 17:20:18;;;;;;;49.23;25.40;;;;;;;;;;6594728;28;20580;-93
2022/12/02 17:23:29;;;;;;;41.17;21.57;;;;;;;;;;6591464;28;20191;-92
2022/12/02 17:26:40;;;;;;;25.73;14.33;;;;;;;;;;6594661;28;20180;-92
2022/12/02 17:29:50;;;;;;;37.80;20.83;;;;;;;;;;6594232;28;20327;-91
2022/12/02 17:33:01;;;;;;;40.27;21.03;;;;;;;;;;6594120;28;20630;-91
2022/12/02 17:36:12;;;;;;;32.77;19.37;;;;;;;;;;6577803;28;20205;-90
2022/12/02 17:39:23;;;;;;;37.07;20.27;;;;;;;;;;6577838;28;20318;-92
2022/12/02 17:42:34;;;;;;;45.20;22.43;;;;;;;;;;6578104;28;20184;-92
2022/12/02 17:45:45;;;;;;;39.47;20.87;;;;;;;;;;6595551;28;20515;-91
2022/12/02 17:48:56;;;;;;;25.70;15.10;;;;;;;;;;6579838;28;20414;-93
2022/12/02 17:52:06;;;;;;;39.93;22.97;;;;;;;;;;6565945;28;20417;-92
2022/12/02 17:55:16;;;;;;;46.53;23.87;;;;;;;;;;6583184;28;20431;-92
2022/12/02 17:58:27;;;;;;;40.57;20.10;;;;;;;;;;6581978;28;20253;-92
2022/12/02 18:01:39;;;;;;;39.30;20.43;;;;;;;;;;6577165;28;20176;-91
2022/12/02 18:04:49;;;;;;;34.57;17.00;;;;;;;;;;6541305;28;20189;-91
2022/12/02 18:08:00;;;;;;;32.90;16.93;;;;;;;;;;6567605;28;20267;-92
2022/12/02 18:11:11;;;;;;;46.87;23.90;;;;;;;;;;6582877;28;20271;-91
2022/12/02 18:14:21;;;;;;;45.47;21.03;;;;;;;;;;6599722;28;20176;-91
2022/12/02 18:17:33;;;;;;;36.23;18.57;;;;;;;;;;6588199;28;20208;-92
2022/12/02 18:20:43;;;;;;;42.07;20.53;;;;;;;;;;6575989;28;20209;-90
2022/12/02 18:23:54;;;;;;;46.83;22.23;;;;;;;;;;6590785;28;20534;-91
2022/12/02 18:27:05;;;;;;;45.33;22.37;;;;;;;;;;6582117;28;20192;-91
2022/12/02 18:30:16;;;;;;;50.10;23.87;;;;;;;;;;6582207;28;20314;-91
2022/12/02 18:33:26;;;;;;;41.90;22.67;;;;;;;;;;6579130;28;20232;-92
2022/12/02 18:36:37;;;;;;;37.20;19.23;;;;;;;;;;6581992;28;20204;-91